createdAt,value
2019-05-07T04:02:04.778Z,28.125
2019-05-07T04:05:35.711Z,28.125
2019-05-07T04:09:06.667Z,28.125
2019-05-07T04:12:37.689Z,33.75
2019-05-07T04:16:08.614Z,33.75
2019-05-07T04:19:38.575Z,39.375
2019-05-07T04:23:08.562Z,39.375
2019-05-07T04:26:38.656Z,39.375
2019-05-07T04:30:08.540Z,39.375
2019-05-07T04:33:38.474Z,56.25
2019-05-07T04:37:08.409Z,50.625
2019-05-07T04:40:38.357Z,78.75
2019-05-07T04:44:08.295Z,56.25
2019-05-07T04:47:46.503Z,56.25
2019-05-07T04:51:14.176Z,61.875
2019-05-07T04:54:45.125Z,112.5
2019-05-07T04:58:15.062Z,168.75
2019-05-07T05:01:46.094Z,90
2019-05-07T05:05:17.030Z,67.5
2019-05-07T05:08:51.776Z,123.75
2019-05-07T05:12:17.949Z,151.875
2019-05-07T05:15:47.903Z,101.25
2019-05-07T05:19:17.877Z,118.125
2019-05-07T05:22:47.824Z,67.5
2019-05-07T05:26:17.797Z,73.125
2019-05-07T05:29:47.755Z,112.5
2019-05-07T05:33:17.688Z,320.625
2019-05-07T05:36:47.806Z,95.625
2019-05-07T05:40:17.803Z,28.125
2019-05-07T05:43:47.741Z,33.75
2019-05-07T05:47:17.694Z,78.75
2019-05-07T05:50:47.638Z,84.375
2019-05-07T05:54:16.613Z,163.125
2019-05-07T05:57:46.545Z,123.75
2019-05-07T06:01:17.503Z,241.875
2019-05-07T06:04:48.447Z,230.625
2019-05-07T06:08:20.406Z,180
2019-05-07T06:11:49.352Z,95.625
2019-05-07T06:15:19.308Z,140.625
2019-05-07T06:18:49.245Z,151.875
2019-05-07T06:22:22.128Z,196.875
2019-05-07T06:25:52.291Z,208.125
2019-05-07T06:29:23.230Z,196.875
2019-05-07T06:32:54.071Z,163.125
2019-05-07T06:36:25.006Z,236.25
2019-05-07T06:39:55.946Z,129.375
2019-05-07T06:43:26.867Z,146.25
2019-05-07T06:46:56.837Z,118.125
2019-05-07T06:50:25.781Z,174.375
2019-05-07T06:53:55.721Z,241.875
2019-05-07T06:57:26.668Z,253.125
2019-05-07T07:00:56.680Z,253.125
2019-05-07T07:04:26.654Z,168.75
2019-05-07T07:07:55.582Z,67.5
2019-05-07T07:11:26.559Z,67.5
2019-05-07T07:14:58.128Z,118.125
2019-05-07T07:18:27.492Z,163.125
2019-05-07T07:21:57.442Z,168.75
2019-05-07T07:25:27.955Z,129.375
2019-05-07T07:28:57.884Z,230.625
2019-05-07T07:32:27.823Z,213.75
2019-05-07T07:35:57.776Z,275.625
2019-05-07T07:39:27.738Z,292.5
2019-05-07T07:42:57.690Z,230.625
2019-05-07T07:46:26.633Z,174.375
2019-05-07T07:49:56.571Z,163.125
2019-05-07T07:53:26.617Z,140.625
2019-05-07T07:56:58.573Z,140.625
2019-05-07T08:00:32.983Z,236.25
2019-05-07T08:04:02.664Z,455.625
2019-05-07T08:07:30.399Z,393.75
2019-05-07T08:11:02.329Z,230.625
2019-05-07T08:14:32.223Z,174.375
2019-05-07T08:18:02.517Z,174.375
2019-05-07T08:21:30.231Z,202.5
2019-05-07T08:25:02.018Z,286.875
2019-05-07T08:28:32.740Z,337.5
2019-05-07T08:32:03.691Z,360
2019-05-07T08:35:34.636Z,101.25
2019-05-07T08:39:05.593Z,225
2019-05-07T08:42:34.644Z,230.625
2019-05-07T08:46:05.593Z,247.5
2019-05-07T08:49:40.231Z,174.375
2019-05-07T08:53:09.436Z,185.625
2019-05-07T08:56:39.478Z,309.375
2019-05-07T09:00:08.399Z,281.25
2019-05-07T09:03:38.337Z,140.625
2019-05-07T09:07:08.280Z,157.5
2019-05-07T09:10:38.231Z,208.125
2019-05-07T09:14:08.171Z,343.125
2019-05-07T09:17:38.109Z,388.125
2019-05-07T09:21:09.076Z,230.625
2019-05-07T09:24:39.029Z,562.5
2019-05-07T09:28:08.948Z,309.375
2019-05-07T09:31:39.026Z,191.25
2019-05-07T09:35:08.936Z,309.375
2019-05-07T09:38:36.884Z,393.75
2019-05-07T09:42:06.848Z,450
2019-05-07T09:45:36.794Z,416.25
2019-05-07T09:49:06.742Z,219.375
2019-05-07T09:52:36.788Z,1580.625
2019-05-07T09:56:05.738Z,1620
2019-05-07T09:59:36.687Z,264.375
2019-05-07T10:03:06.650Z,337.5
2019-05-07T10:06:36.604Z,191.25
2019-05-07T10:10:07.536Z,1856.25
2019-05-07T10:13:37.491Z,4533.75
2019-05-07T10:17:07.450Z,4505.625
2019-05-07T10:20:37.416Z,4477.5
2019-05-07T10:24:07.377Z,331.875
2019-05-07T10:27:37.403Z,444.375
2019-05-07T10:31:07.352Z,286.875
2019-05-07T10:34:35.299Z,2790
2019-05-07T10:38:06.266Z,298.125
2019-05-07T10:41:36.232Z,646.875
2019-05-07T10:45:07.168Z,466.875
2019-05-07T10:48:37.127Z,421.875
2019-05-07T10:52:06.086Z,225
2019-05-07T10:55:37.019Z,871.875
2019-05-07T10:59:06.984Z,365.625
2019-05-07T11:02:39.243Z,995.625
2019-05-07T11:06:07.095Z,658.125
2019-05-07T11:09:37.040Z,1445.625
2019-05-07T11:13:07.017Z,1468.125
2019-05-07T11:16:36.987Z,1642.5
2019-05-07T11:20:07.059Z,1738.125
2019-05-07T11:23:37.042Z,1440
2019-05-07T11:27:07.023Z,1501.875
2019-05-07T11:30:35.979Z,855
2019-05-07T11:34:06.936Z,1029.375
2019-05-07T11:37:36.991Z,2469.375
2019-05-07T11:41:06.961Z,2463.75
2019-05-07T11:44:36.919Z,2458.125
2019-05-07T11:48:06.879Z,2531.25
2019-05-07T11:51:37.841Z,2722.5
2019-05-07T11:55:07.831Z,2632.5
2019-05-07T11:58:37.810Z,2643.75
2019-05-07T12:02:07.796Z,2711.25
2019-05-07T12:05:37.753Z,2784.375
2019-05-07T12:09:07.752Z,2688.75
2019-05-07T12:12:37.738Z,2790
2019-05-07T12:16:07.718Z,2019.375
2019-05-07T12:19:37.699Z,478.125
2019-05-07T12:23:07.674Z,343.125
2019-05-07T12:26:35.644Z,1164.375
2019-05-07T12:30:05.659Z,545.625
2019-05-07T12:33:37.545Z,511.875
2019-05-07T12:37:08.578Z,2221.875
2019-05-07T12:40:38.502Z,2806.875
2019-05-07T12:44:07.507Z,804.375
2019-05-07T12:47:37.487Z,2925
2019-05-07T12:51:07.470Z,2970
2019-05-07T12:54:39.410Z,2896.875
2019-05-07T12:58:09.382Z,2868.75
2019-05-07T13:01:42.079Z,3071.25
2019-05-07T13:05:11.759Z,2964.375
2019-05-07T13:08:42.041Z,2880
2019-05-07T13:12:11.851Z,2081.25
2019-05-07T13:15:43.318Z,511.875
2019-05-07T13:19:13.902Z,1147.5
2019-05-07T13:22:42.861Z,2846.25
2019-05-07T13:26:12.836Z,1501.875
2019-05-07T13:29:45.007Z,1074.375
2019-05-07T13:33:15.755Z,410.625
2019-05-07T13:36:45.861Z,506.25
2019-05-07T13:40:15.815Z,388.125
2019-05-07T13:43:46.784Z,720
2019-05-07T13:47:16.799Z,410.625
2019-05-07T13:50:46.766Z,675
2019-05-07T13:54:16.835Z,832.5
2019-05-07T13:57:46.781Z,337.5
2019-05-07T14:01:16.743Z,410.625
2019-05-07T14:04:46.770Z,433.125
2019-05-07T14:08:17.772Z,270
2019-05-07T14:11:47.756Z,438.75
2019-05-07T14:15:18.742Z,264.375
2019-05-07T14:18:46.702Z,489.375
2019-05-07T14:22:19.640Z,444.375
2019-05-07T14:25:52.643Z,241.875
2019-05-07T14:29:24.172Z,444.375
2019-05-07T14:32:52.419Z,393.75
2019-05-07T14:36:19.565Z,461.25
2019-05-07T14:39:51.308Z,376.875
2019-05-07T14:43:21.836Z,360
2019-05-07T14:46:54.372Z,382.5
2019-05-07T14:50:24.428Z,461.25
2019-05-07T14:53:54.383Z,427.5
2019-05-07T14:57:25.356Z,365.625
2019-05-07T15:00:55.424Z,337.5
2019-05-07T15:04:26.366Z,292.5
2019-05-07T15:08:08.142Z,303.75
2019-05-07T15:11:29.214Z,264.375
2019-05-07T15:14:58.165Z,275.625
2019-05-07T15:18:28.209Z,168.75
2019-05-07T15:21:58.308Z,213.75
2019-05-07T15:25:28.256Z,275.625
2019-05-07T15:28:58.202Z,331.875
2019-05-07T15:32:26.164Z,253.125
2019-05-07T15:35:56.263Z,298.125
2019-05-07T15:39:26.225Z,270
2019-05-07T15:42:56.175Z,388.125
2019-05-07T15:46:27.096Z,309.375
2019-05-07T15:49:57.147Z,298.125
2019-05-07T15:53:27.344Z,281.25
2019-05-07T15:56:57.339Z,196.875
2019-05-07T16:00:27.304Z,202.5
2019-05-07T16:03:58.301Z,225
2019-05-07T16:07:28.260Z,253.125
2019-05-07T16:10:57.373Z,298.125
2019-05-07T16:14:29.337Z,264.375
2019-05-07T16:17:59.293Z,303.75
2019-05-07T16:21:29.253Z,320.625
2019-05-07T16:24:59.381Z,213.75
2019-05-07T16:28:28.345Z,157.5
2019-05-07T16:31:58.936Z,180
2019-05-07T16:35:28.940Z,230.625
2019-05-07T16:38:58.884Z,213.75
2019-05-07T16:42:28.825Z,230.625
2019-05-07T16:45:59.870Z,230.625
2019-05-07T16:49:31.716Z,219.375
2019-05-07T16:52:59.772Z,219.375
2019-05-07T16:56:29.743Z,225
2019-05-07T16:59:59.820Z,213.75
2019-05-07T17:05:15.455Z,225
2019-05-07T17:08:46.399Z,213.75
2019-05-07T17:12:16.356Z,185.625
2019-05-07T17:15:46.336Z,180
2019-05-07T17:19:16.381Z,168.75
2019-05-07T17:22:46.384Z,163.125
2019-05-07T17:26:16.396Z,157.5
2019-05-07T17:29:47.391Z,146.25
2019-05-07T17:33:17.354Z,140.625
2019-05-07T17:36:47.354Z,129.375
2019-05-07T17:40:17.308Z,123.75
2019-05-07T17:43:45.320Z,106.875
2019-05-07T17:47:16.286Z,90
2019-05-07T17:50:46.265Z,78.75
2019-05-07T17:54:17.303Z,73.125
2019-05-07T18:31:07.982Z,16.875
2019-05-07T18:34:35.970Z,11.25
2019-05-07T18:38:06.193Z,11.25
2019-05-07T21:06:18.045Z,0
2019-05-07T21:09:45.978Z,0
2019-05-07T21:13:28.204Z,0
2019-05-07T21:16:52.003Z,0
2019-05-07T21:20:22.936Z,0
2019-05-07T21:23:53.828Z,0
2019-05-07T21:27:21.841Z,0
2019-05-07T21:30:52.805Z,0
2019-05-07T21:34:23.753Z,0
2019-05-07T21:37:55.684Z,0
2019-05-07T21:41:26.610Z,0
2019-05-07T21:44:57.598Z,0
2019-05-07T21:48:27.689Z,0
2019-05-07T21:51:58.651Z,0
2019-05-07T21:55:28.571Z,0
2019-05-07T21:58:58.517Z,0
